Time;durP1;ratioP1;P1;durP2;ratioP2;P2;SDS_P1;SDS_P2;PMS_P1;PMS_P2;Temp;Humidity;BMP_temperature;BMP_pressure;BME280_temperature;BME280_humidity;BME280_pressure;Samples;Min_cycle;Max_cycle;Signal;HPM_P1;HPM_P2
2022/06/26 00:00:54;;;;;;;1.70;1.60;;;;;;;19.41;60.77;95396.09;4921247;29;20288;-77
2022/06/26 00:03:20;;;;;;;1.38;1.10;;;;;;;19.48;60.45;95409.25;4938106;29;20189;-79
2022/06/26 00:05:45;;;;;;;1.40;1.30;;;;;;;19.50;60.41;95405.41;4917553;29;20189;-79
2022/06/26 00:08:10;;;;;;;1.40;1.27;;;;;;;19.51;60.32;95412.28;4918278;29;20195;-80
2022/06/26 00:10:35;;;;;;;2.25;1.40;;;;;;;19.55;60.03;95417.97;4901928;29;20191;-79
2022/06/26 00:13:01;;;;;;;1.60;1.35;;;;;;;19.55;60.58;95417.16;4895832;29;20339;-78
2022/06/26 00:15:26;;;;;;;1.52;1.42;;;;;;;19.57;61.39;95429.13;4901021;29;20671;-79
2022/06/26 00:17:51;;;;;;;1.20;1.10;;;;;;;19.56;62.22;95437.22;4901595;29;20178;-79
2022/06/26 00:20:17;;;;;;;2.13;1.48;;;;;;;19.57;62.90;95439.66;4918877;29;20218;-79
2022/06/26 00:22:42;;;;;;;2.35;1.88;;;;;;;19.50;64.20;95447.53;4901897;29;20651;-79
2022/06/26 00:25:08;;;;;;;1.77;1.55;;;;;;;19.41;66.00;95451.41;4930563;29;20185;-79
2022/06/26 00:27:34;;;;;;;2.10;1.90;;;;;;;19.44;67.07;95456.28;4907098;29;20182;-79
2022/06/26 00:29:59;;;;;;;2.15;1.85;;;;;;;19.40;67.79;95468.22;4886014;29;20277;-80
2022/06/26 00:32:24;;;;;;;2.13;1.52;;;;;;;19.24;68.57;95461.53;4918247;29;20214;-79
2022/06/26 00:34:50;;;;;;;2.22;1.52;;;;;;;19.16;70.32;95466.19;4900844;29;20651;-80
2022/06/26 00:37:15;;;;;;;2.53;1.40;;;;;;;19.18;70.81;95459.72;4901530;29;20210;-80
2022/06/26 00:39:41;;;;;;;1.42;1.33;;;;;;;19.00;71.71;95456.09;4915619;29;20209;-81
2022/06/26 00:42:06;;;;;;;1.48;1.38;;;;;;;18.81;73.43;95457.66;4886040;29;20206;-79
2022/06/26 00:44:31;;;;;;;1.42;1.23;;;;;;;18.78;72.87;95463.34;4901216;29;20549;-80
2022/06/26 00:46:57;;;;;;;1.67;1.35;;;;;;;18.88;72.90;95456.66;4885915;29;20178;-80
2022/06/26 00:49:22;;;;;;;1.08;1.08;;;;;;;18.72;73.21;95448.34;4899848;29;20206;-80
2022/06/26 00:51:50;;;;;;;1.10;1.10;;;;;;;18.63;72.48;95445.06;4885980;29;20289;-80
2022/06/26 00:54:16;;;;;;;1.48;1.30;;;;;;;18.74;71.33;95441.09;4884856;29;20189;-80
2022/06/26 00:56:41;;;;;;;1.20;1.10;;;;;;;18.68;70.95;95443.50;4901261;29;20182;-80
2022/06/26 00:59:06;;;;;;;2.78;1.02;;;;;;;18.69;69.87;95431.16;4901093;29;20270;-79
2022/06/26 01:01:34;;;;;;;1.33;1.23;;;;;;;18.74;69.40;95426.13;4885280;29;20205;-79
2022/06/26 01:04:00;;;;;;;1.25;1.05;;;;;;;18.71;69.29;95426.50;4900681;29;20182;-79
2022/06/26 01:06:25;;;;;;;1.10;1.00;;;;;;;18.65;68.94;95417.63;4918292;29;20201;-80
2022/06/26 01:08:50;;;;;;;1.38;1.02;;;;;;;18.75;69.18;95411.16;4901440;29;20214;-80
2022/06/26 01:11:18;;;;;;;0.80;0.80;;;;;;;18.77;69.63;95441.50;4900950;29;20234;-79
2022/06/26 01:13:49;;;;;;;1.20;1.10;;;;;;;18.53;70.45;95469.13;4901014;29;20226;-80
2022/06/26 01:16:15;;;;;;;1.05;1.05;;;;;;;18.48;70.90;95457.59;4885308;29;20183;-80
2022/06/26 01:18:42;;;;;;;1.20;1.10;;;;;;;18.51;69.40;95452.75;4884728;29;20661;-79
2022/06/26 01:21:07;;;;;;;1.40;0.90;;;;;;;18.44;69.71;95459.00;4903178;29;20380;-80
2022/06/26 01:23:33;;;;;;;1.10;1.00;;;;;;;18.38;69.41;95452.72;4903383;29;20233;-79
2022/06/26 01:25:58;;;;;;;1.23;0.90;;;;;;;18.42;68.52;95463.66;4918863;29;20184;-79
2022/06/26 01:28:23;;;;;;;0.82;0.80;;;;;;;18.43;68.84;95455.56;4919528;29;20182;-79
2022/06/26 01:30:48;;;;;;;2.40;0.88;;;;;;;18.52;67.96;95450.91;4903768;29;20257;-80
2022/06/26 01:33:14;;;;;;;1.65;1.10;;;;;;;18.45;68.40;95450.09;4936291;29;20176;-80
2022/06/26 01:35:39;;;;;;;0.88;0.88;;;;;;;18.30;69.17;95445.81;4919007;29;20272;-79
2022/06/26 01:38:12;;;;;;;1.13;1.02;;;;;;;18.28;68.72;95453.06;4927167;29;20182;-80
2022/06/26 01:40:37;;;;;;;0.80;0.80;;;;;;;18.25;68.78;95457.94;4918669;29;20198;-80
2022/06/26 01:43:03;;;;;;;0.60;0.60;;;;;;;18.23;68.32;95446.81;4936239;29;20565;-79
2022/06/26 01:45:28;;;;;;;1.27;0.90;;;;;;;18.24;67.91;95446.59;4903057;29;20212;-79
2022/06/26 01:47:54;;;;;;;0.80;0.80;;;;;;;18.10;68.66;95447.56;4918598;29;20281;-79
2022/06/26 01:50:19;;;;;;;1.52;0.80;;;;;;;18.00;69.68;95439.22;4935278;29;20190;-79
2022/06/26 01:52:45;;;;;;;0.93;0.93;;;;;;;17.97;69.48;95439.63;4919334;29;20214;-79
2022/06/26 01:55:10;;;;;;;1.75;0.90;;;;;;;18.03;69.15;95433.59;4934106;29;20215;-79
2022/06/26 01:57:35;;;;;;;0.93;0.68;;;;;;;17.97;69.43;95440.44;4919339;29;20229;-79
2022/06/26 02:00:00;;;;;;;0.60;0.60;;;;;;;17.97;69.29;95439.63;4936253;29;20257;-79
2022/06/26 02:02:26;;;;;;;0.90;0.90;;;;;;;17.93;69.02;95433.94;4903197;29;20237;-79
2022/06/26 02:04:51;;;;;;;0.95;0.82;;;;;;;17.89;69.25;95426.66;4918088;29;20196;-79
2022/06/26 02:07:16;;;;;;;1.45;0.80;;;;;;;17.89;68.89;95431.91;4935715;29;20569;-79
2022/06/26 02:15:09;;;;;;;0.93;0.70;;;;;;;17.87;69.82;95426.06;4920783;29;20189;-79
2022/06/26 02:17:35;;;;;;;1.73;0.90;;;;;;;17.87;70.26;95424.22;4919195;29;20616;-78
2022/06/26 02:20:00;;;;;;;1.05;1.00;;;;;;;17.92;70.35;95431.50;4903010;29;20202;-79
2022/06/26 02:22:25;;;;;;;2.25;0.93;;;;;;;17.97;70.01;95429.94;4903303;29;20186;-80
2022/06/26 02:24:50;;;;;;;1.25;1.15;;;;;;;17.97;70.38;95422.03;4902302;29;20837;-79
2022/06/26 02:27:16;;;;;;;1.33;1.00;;;;;;;17.98;69.99;95431.53;4902734;29;20201;-80
2022/06/26 02:29:41;;;;;;;2.60;1.10;;;;;;;17.96;70.45;95432.75;4918225;29;20278;-80
2022/06/26 02:32:07;;;;;;;2.38;1.00;;;;;;;17.99;70.06;95434.97;4920113;29;20212;-80
2022/06/26 02:34:32;;;;;;;1.45;1.10;;;;;;;17.97;70.60;95444.88;4939041;29;20185;-80
2022/06/26 02:36:57;;;;;;;0.70;0.70;;;;;;;18.03;70.42;95444.09;4907001;29;20201;-80
2022/06/26 02:39:23;;;;;;;1.25;1.15;;;;;;;18.01;70.52;95433.78;4929980;29;20212;-79
2022/06/26 02:41:48;;;;;;;0.85;0.85;;;;;;;18.00;70.44;95437.41;4907219;29;20174;-79
2022/06/26 02:44:15;;;;;;;1.02;0.93;;;;;;;17.98;70.42;95430.75;4921643;29;20545;-80
2022/06/26 02:46:40;;;;;;;1.65;0.90;;;;;;;17.99;70.59;95427.91;4907063;29;20776;-80
2022/06/26 02:49:09;;;;;;;1.25;1.15;;;;;;;17.99;70.73;95416.59;4920897;29;20185;-79
2022/06/26 02:51:34;;;;;;;0.88;0.88;;;;;;;17.98;70.70;95426.28;4906428;29;20236;-80
2022/06/26 02:53:59;;;;;;;1.20;1.10;;;;;;;17.90;71.60;95434.34;4921785;29;20713;-80
2022/06/26 02:56:25;;;;;;;1.85;1.05;;;;;;;17.89;71.56;95426.66;4906394;29;20546;-80
2022/06/26 02:58:50;;;;;;;1.65;0.98;;;;;;;17.94;71.40;95430.34;4906274;29;20194;-80
2022/06/26 03:01:16;;;;;;;2.70;1.55;;;;;;;17.92;71.57;95426.25;4922233;29;20682;-80
2022/06/26 03:03:41;;;;;;;1.42;1.20;;;;;;;17.82;72.23;95413.50;4938503;29;20209;-80
2022/06/26 03:06:06;;;;;;;1.73;1.05;;;;;;;17.82;72.01;95401.16;4938861;29;20185;-79
2022/06/26 03:08:32;;;;;;;0.90;0.90;;;;;;;17.92;72.04;95402.63;4922003;29;20671;-79
2022/06/26 03:10:57;;;;;;;1.10;0.90;;;;;;;17.98;71.76;95405.28;4921720;29;20202;-79
2022/06/26 03:13:22;;;;;;;1.00;1.00;;;;;;;18.02;71.43;95403.88;4906165;29;20181;-80
2022/06/26 03:15:47;;;;;;;1.23;0.95;;;;;;;17.85;71.84;95415.75;4920911;29;20582;-80
2022/06/26 03:18:13;;;;;;;1.88;1.10;;;;;;;17.78;72.92;95431.47;4905667;29;20186;-80
2022/06/26 03:20:40;;;;;;;1.95;1.20;;;;;;;17.78;73.23;95430.66;4905815;29;20233;-80
2022/06/26 03:23:05;;;;;;;2.17;1.08;;;;;;;17.86;72.81;95432.31;4906443;29;20197;-80
2022/06/26 03:25:30;;;;;;;1.10;1.00;;;;;;;17.95;72.00;95426.69;4904874;29;20186;-79
2022/06/26 03:27:56;;;;;;;4.00;1.40;;;;;;;17.97;72.27;95435.19;4921981;29;20186;-80
2022/06/26 03:30:21;;;;;;;1.25;1.10;;;;;;;17.91;72.26;95435.16;4921131;29;20686;-80
2022/06/26 03:32:46;;;;;;;1.55;0.80;;;;;;;17.92;71.97;95440.19;4921324;29;20244;-80
2022/06/26 03:35:12;;;;;;;1.13;1.02;;;;;;;17.81;72.46;95446.81;4920588;29;20598;-79
2022/06/26 03:37:38;;;;;;;1.25;0.90;;;;;;;17.76;72.41;95456.31;4938413;29;20177;-80
2022/06/26 03:40:03;;;;;;;1.13;1.00;;;;;;;17.77;72.57;95457.94;4905597;29;20265;-80
2022/06/26 03:42:29;;;;;;;1.35;1.00;;;;;;;17.86;72.07;95448.06;4923519;29;20184;-81
2022/06/26 03:44:54;;;;;;;1.48;0.90;;;;;;;17.78;72.24;95452.47;4904867;29;20233;-78
2022/06/26 03:47:19;;;;;;;2.30;1.10;;;;;;;17.77;72.08;95458.75;4905233;29;20184;-78
2022/06/26 03:49:45;;;;;;;2.17;1.02;;;;;;;17.80;72.10;95460.97;4919664;29;20198;-78
2022/06/26 03:52:10;;;;;;;1.33;1.08;;;;;;;17.70;73.06;95468.38;4921029;29;20217;-81
2022/06/26 03:54:35;;;;;;;0.90;0.90;;;;;;;17.71;73.03;95462.13;4920872;29;20646;-81
2022/06/26 03:57:01;;;;;;;1.27;1.17;;;;;;;18.28;71.30;95468.84;4920972;29;20184;-78
2022/06/26 03:59:26;;;;;;;1.20;1.13;;;;;;;18.79;69.00;95470.22;4937994;29;20289;-80
2022/06/26 04:01:51;;;;;;;1.58;0.90;;;;;;;19.73;65.62;95467.41;4905405;29;20202;-79
2022/06/26 04:04:17;;;;;;;0.82;0.80;;;;;;;19.38;65.19;95464.19;4937939;29;20174;-79
2022/06/26 04:06:42;;;;;;;2.65;2.03;;;;;;;19.05;66.33;95464.97;4912462;29;20225;-79
2022/06/26 04:09:07;;;;;;;1.20;1.10;;;;;;;18.72;67.80;95464.94;4920945;29;20178;-80
2022/06/26 04:11:33;;;;;;;1.70;1.17;;;;;;;18.46;68.88;95464.84;4905013;29;20202;-79
2022/06/26 04:13:58;;;;;;;1.52;0.90;;;;;;;18.39;69.06;95454.34;4904642;29;20273;-80
2022/06/26 04:16:23;;;;;;;1.20;1.10;;;;;;;18.13;69.57;95460.31;4905411;29;20569;-79
2022/06/26 04:18:49;;;;;;;1.13;1.02;;;;;;;18.17;69.94;95443.13;4920738;29;20562;-79
2022/06/26 04:21:14;;;;;;;3.10;1.02;;;;;;;17.96;70.63;95443.25;4936784;29;20190;-79
2022/06/26 04:23:40;;;;;;;2.03;0.95;;;;;;;18.12;70.21;95437.69;4937280;29;20198;-79
2022/06/26 04:26:05;;;;;;;1.25;1.15;;;;;;;17.94;71.03;95437.41;4920024;29;20285;-79
2022/06/26 04:28:31;;;;;;;1.00;1.00;;;;;;;17.76;71.92;95438.75;4904314;29;20204;-79
2022/06/26 04:30:56;;;;;;;1.55;1.20;;;;;;;17.54;73.76;95456.34;4920235;29;20307;-79
2022/06/26 04:33:21;;;;;;;1.67;1.23;;;;;;;17.55;73.62;95460.59;4920262;29;20285;-79
2022/06/26 04:35:47;;;;;;;1.02;0.95;;;;;;;17.55;73.68;95463.22;4903934;29;20197;-79
2022/06/26 04:38:12;;;;;;;1.10;1.10;;;;;;;17.52;74.53;95466.22;4920404;29;20666;-79
2022/06/26 04:40:37;;;;;;;1.27;1.20;;;;;;;19.08;68.73;95459.34;4920660;29;20260;-80
2022/06/26 04:43:03;;;;;;;2.28;1.20;;;;;;;22.14;57.68;95462.75;4904692;29;20182;-79
2022/06/26 04:45:28;;;;;;;1.38;1.27;;;;;;;24.47;49.61;95468.63;4920509;29;20182;-80
2022/06/26 04:47:53;;;;;;;1.10;1.00;;;;;;;24.79;47.10;95471.63;4905581;29;20654;-80
2022/06/26 04:50:19;;;;;;;0.90;0.90;;;;;;;23.85;48.88;95468.38;4919720;29;20201;-80
2022/06/26 04:52:45;;;;;;;0.70;0.70;;;;;;;23.10;50.53;95456.59;4920983;29;20202;-80
2022/06/26 04:55:11;;;;;;;1.05;0.95;;;;;;;22.42;53.55;95466.69;4904026;29;20337;-80
2022/06/26 04:57:36;;;;;;;2.33;0.90;;;;;;;22.12;54.35;95461.38;4920824;29;20746;-80
2022/06/26 05:00:04;;;;;;;1.20;1.10;;;;;;;23.31;51.04;95465.00;4905531;29;20217;-80
2022/06/26 05:02:29;;;;;;;1.00;0.90;;;;;;;26.19;43.29;95483.94;4921187;29;20178;-80
2022/06/26 05:04:54;;;;;;;1.67;0.98;;;;;;;27.11;40.88;95477.00;4904400;29;20717;-80
2022/06/26 05:07:20;;;;;;;0.98;0.80;;;;;;;27.97;38.56;95484.88;4920516;29;20194;-81
2022/06/26 05:09:45;;;;;;;0.70;0.70;;;;;;;27.84;38.45;95494.16;4920645;29;20201;-81
2022/06/26 05:12:10;;;;;;;1.27;1.02;;;;;;;27.88;37.86;95497.91;4934853;29;20284;-80
2022/06/26 05:14:36;;;;;;;1.00;0.95;;;;;;;27.96;38.08;95507.28;4919088;29;20655;-80
2022/06/26 05:17:01;;;;;;;1.10;0.80;;;;;;;28.75;37.47;95509.03;4904183;29;20182;-80
2022/06/26 05:19:26;;;;;;;1.13;0.90;;;;;;;27.93;37.79;95508.63;4904736;29;20228;-80
2022/06/26 05:21:53;;;;;;;1.58;1.20;;;;;;;28.18;37.72;95518.66;4920491;29;20551;-80
2022/06/26 05:24:18;;;;;;;1.40;1.25;;;;;;;28.42;37.37;95512.91;4936446;29;20182;-80
2022/06/26 05:26:43;;;;;;;1.85;0.80;;;;;;;28.56;36.91;95523.94;4919756;29;20651;-80
2022/06/26 05:29:08;;;;;;;1.90;0.90;;;;;;;29.43;35.29;95525.75;4936817;29;20170;-80
2022/06/26 05:31:34;;;;;;;1.20;1.10;;;;;;;29.18;36.17;95534.56;4936672;29;20274;-80
2022/06/26 05:33:59;;;;;;;1.42;1.00;;;;;;;30.14;34.53;95522.28;4919683;29;20184;-80
2022/06/26 05:36:24;;;;;;;1.92;1.00;;;;;;;30.23;34.25;95519.84;4903806;29;20185;-81
2022/06/26 05:38:50;;;;;;;1.08;1.00;;;;;;;31.50;31.30;95512.00;4920058;29;20184;-80
2022/06/26 05:41:15;;;;;;;1.00;1.00;;;;;;;30.13;33.77;95510.78;4937133;29;20198;-80
2022/06/26 05:43:42;;;;;;;1.40;1.00;;;;;;;32.06;31.59;95508.81;4901032;29;20245;-80
2022/06/26 05:46:07;;;;;;;1.25;1.13;;;;;;;31.83;30.28;95502.34;4910735;29;20174;-80
2022/06/26 05:48:32;;;;;;;0.90;0.90;;;;;;;30.73;32.85;95503.59;4896367;29;20240;-80
2022/06/26 05:50:58;;;;;;;1.20;1.05;;;;;;;30.85;32.43;95507.84;4906895;29;20217;-80
2022/06/26 05:53:23;;;;;;;1.45;1.10;;;;;;;31.80;30.70;95520.91;4902726;29;20254;-80
2022/06/26 05:55:48;;;;;;;1.23;1.00;;;;;;;32.52;29.36;95516.44;4908027;29;20642;-80
2022/06/26 05:58:14;;;;;;;1.90;1.00;;;;;;;32.70;29.43;95520.25;4901217;29;20192;-80
2022/06/26 06:00:39;;;;;;;0.90;0.85;;;;;;;31.84;29.76;95512.00;4918655;29;20197;-81
2022/06/26 06:03:06;;;;;;;1.52;1.00;;;;;;;32.91;28.56;95513.53;4918646;29;20213;-80
2022/06/26 06:05:32;;;;;;;1.05;0.90;;;;;;;31.20;30.40;95509.53;4918078;29;20190;-80
2022/06/26 06:07:58;;;;;;;2.42;1.10;;;;;;;31.32;30.10;95515.34;4937763;29;20250;-81
2022/06/26 06:10:25;;;;;;;1.10;0.95;;;;;;;30.43;31.58;95515.22;4919736;29;20209;-81
2022/06/26 06:12:51;;;;;;;1.42;0.93;;;;;;;32.29;28.92;95517.19;4926534;29;20198;-79
2022/06/26 06:15:20;;;;;;;1.45;0.77;;;;;;;33.11;27.28;95520.53;4926550;29;20174;-79
2022/06/26 06:17:45;;;;;;;1.17;1.08;;;;;;;31.04;31.25;95522.22;4943304;29;20186;-80
2022/06/26 06:20:14;;;;;;;0.80;0.80;;;;;;;31.49;30.56;95529.19;4927370;29;20229;-79
2022/06/26 06:22:41;;;;;;;1.00;1.00;;;;;;;30.64;32.13;95534.69;4911709;29;20174;-79
2022/06/26 06:25:08;;;;;;;2.00;1.00;;;;;;;29.54;33.83;95532.75;4912952;29;20185;-77
2022/06/26 06:27:33;;;;;;;1.27;0.73;;;;;;;31.20;31.01;95534.47;4913802;29;20198;-79
2022/06/26 06:29:59;;;;;;;1.00;0.90;;;;;;;30.14;33.46;95528.44;4913267;29;20659;-78
2022/06/26 06:32:24;;;;;;;0.95;0.93;;;;;;;31.06;31.13;95529.97;4928622;29;20678;-77
2022/06/26 06:34:49;;;;;;;0.82;0.80;;;;;;;30.85;31.64;95545.38;4911139;29;20188;-78
2022/06/26 06:37:15;;;;;;;1.10;1.00;;;;;;;31.11;30.96;95549.53;4929151;29;20194;-78
2022/06/26 06:39:40;;;;;;;1.52;0.90;;;;;;;30.59;32.34;95555.38;4911727;29;20193;-78
2022/06/26 06:42:05;;;;;;;1.45;0.93;;;;;;;31.42;30.90;95555.53;4917567;29;20210;-78
2022/06/26 06:44:30;;;;;;;0.90;0.90;;;;;;;30.88;31.18;95558.22;4906529;29;20186;-78
2022/06/26 06:46:56;;;;;;;0.80;0.80;;;;;;;31.23;30.89;95555.38;4893246;29;20190;-78
2022/06/26 06:49:21;;;;;;;0.60;0.60;;;;;;;31.00;30.59;95562.16;4912050;29;20294;-78
2022/06/26 06:51:46;;;;;;;0.90;0.90;;;;;;;30.98;30.99;95558.16;4927041;29;20198;-78
2022/06/26 06:54:12;;;;;;;1.85;1.00;;;;;;;31.12;30.82;95553.81;4907271;29;20177;-78
2022/06/26 06:56:37;;;;;;;3.55;1.10;;;;;;;31.16;31.16;95557.53;4924745;29;20183;-78
2022/06/26 06:59:03;;;;;;;1.13;0.95;;;;;;;32.29;28.29;95561.00;4923958;29;20242;-78
2022/06/26 07:01:29;;;;;;;0.80;0.80;;;;;;;32.58;28.19;95571.72;4892754;29;20708;-78
2022/06/26 07:03:54;;;;;;;1.52;0.90;;;;;;;31.66;30.31;95568.25;4905842;29;20179;-78
2022/06/26 07:06:19;;;;;;;1.20;0.80;;;;;;;31.45;29.75;95572.94;4891808;29;20198;-84
2022/06/26 07:08:45;;;;;;;0.77;0.77;;;;;;;32.26;28.74;95566.94;4906281;29;20307;-81
2022/06/26 07:11:10;;;;;;;1.85;0.90;;;;;;;31.20;30.31;95577.38;4907027;29;20234;-80
2022/06/26 07:13:35;;;;;;;1.02;0.80;;;;;;;31.02;30.40;95578.00;4904435;29;20194;-79
2022/06/26 07:16:02;;;;;;;1.00;0.82;;;;;;;30.47;30.99;95571.75;4936691;29;20229;-79
2022/06/26 07:18:28;;;;;;;1.08;0.98;;;;;;;30.73;30.51;95565.25;4939481;29;20174;-80
2022/06/26 07:20:53;;;;;;;1.63;0.80;;;;;;;31.34;29.50;95566.84;4921706;29;20225;-79
2022/06/26 07:23:19;;;;;;;0.77;0.77;;;;;;;30.07;31.72;95573.44;4939978;29;20178;-80
2022/06/26 07:25:44;;;;;;;1.30;0.80;;;;;;;30.37;31.67;95575.25;4906258;29;20196;-79
2022/06/26 07:28:09;;;;;;;0.98;0.98;;;;;;;28.78;34.35;95580.63;4906791;29;20194;-78
2022/06/26 07:30:35;;;;;;;0.88;0.88;;;;;;;29.69;32.79;95569.41;4890596;29;20206;-79
2022/06/26 07:33:04;;;;;;;1.15;0.90;;;;;;;30.02;32.23;95573.41;4908308;29;20701;-80
2022/06/26 07:35:30;;;;;;;1.00;0.88;;;;;;;28.97;33.84;95568.44;4906101;29;20175;-81
2022/06/26 07:37:55;;;;;;;2.13;1.10;;;;;;;28.28;34.76;95562.50;4898443;29;20189;-82
2022/06/26 07:40:21;;;;;;;1.38;1.27;;;;;;;27.22;36.42;95566.69;4923241;29;20212;-81
2022/06/26 07:42:46;;;;;;;0.93;0.80;;;;;;;28.39;35.11;95566.84;4926557;29;20181;-81
2022/06/26 07:45:11;;;;;;;1.48;0.88;;;;;;;28.90;34.18;95570.56;4926012;29;20966;-80
2022/06/26 07:47:37;;;;;;;1.25;1.00;;;;;;;29.05;33.98;95565.25;4911187;29;20185;-80
2022/06/26 07:50:02;;;;;;;1.00;0.90;;;;;;;27.83;36.46;95567.25;4910993;29;20253;-79
2022/06/26 07:52:27;;;;;;;1.17;1.00;;;;;;;28.70;35.49;95573.13;4944241;29;20214;-80
2022/06/26 07:54:53;;;;;;;1.73;1.30;;;;;;;26.79;38.51;95570.19;4907292;29;20181;-78
2022/06/26 07:57:19;;;;;;;1.70;1.27;;;;;;;26.79;38.75;95581.66;4891927;29;20178;-80
2022/06/26 07:59:44;;;;;;;1.85;1.48;;;;;;;26.82;38.84;95565.16;4894245;29;20206;-80
2022/06/26 08:02:09;;;;;;;1.15;1.05;;;;;;;26.66;38.76;95566.03;4928910;29;20192;-80
2022/06/26 08:04:35;;;;;;;4.05;2.92;;;;;;;26.21;40.24;95567.00;4909861;29;20192;-80
2022/06/26 08:07:00;;;;;;;1.17;1.08;;;;;;;25.58;41.83;95554.84;4940579;29;20846;-79
2022/06/26 08:09:25;;;;;;;3.25;1.38;;;;;;;26.08;40.16;95553.25;4925184;29;20618;-81
2022/06/26 08:11:51;;;;;;;2.42;1.20;;;;;;;25.33;41.24;95563.22;4926040;29;20236;-80
2022/06/26 08:14:16;;;;;;;1.25;1.15;;;;;;;24.83;42.69;95553.25;4924715;29;20185;-86
2022/06/26 08:16:41;;;;;;;2.60;1.20;;;;;;;25.04;42.98;95554.47;4924264;29;20177;-85
2022/06/26 08:19:07;;;;;;;1.40;1.10;;;;;;;24.94;42.67;95559.56;4924037;29;20185;-85
2022/06/26 08:24:17;;;;;;;1.50;1.00;;;;;;;25.52;43.77;95566.44;4941349;29;20188;-85
2022/06/26 08:26:42;;;;;;;1.20;0.90;;;;;;;25.50;42.78;95568.53;4923378;29;20181;-85
2022/06/26 08:29:10;;;;;;;3.05;1.05;;;;;;;24.56;44.99;95568.91;4938295;29;20228;-84
2022/06/26 08:31:36;;;;;;;1.98;1.05;;;;;;;25.22;42.71;95571.25;4941327;29;20211;-84
2022/06/26 08:34:01;;;;;;;1.08;1.00;;;;;;;24.97;44.23;95564.38;4959338;29;20186;-86
2022/06/26 08:36:26;;;;;;;1.00;0.93;;;;;;;26.00;41.67;95570.44;4940537;29;20186;-85
2022/06/26 08:38:52;;;;;;;1.40;0.90;;;;;;;25.89;41.79;95572.16;4924295;29;20188;-84
2022/06/26 08:41:17;;;;;;;1.20;1.10;;;;;;;25.14;44.05;95575.91;4938718;29;20177;-85
2022/06/26 08:43:43;;;;;;;2.20;1.40;;;;;;;23.26;48.07;95571.69;4938529;29;20636;-84
2022/06/26 08:46:08;;;;;;;2.25;1.00;;;;;;;23.98;46.57;95564.44;4939068;29;20180;-83
2022/06/26 08:48:44;;;;;;;1.17;1.10;;;;;;;24.02;48.09;95556.81;4938649;29;20186;-85
2022/06/26 08:51:10;;;;;;;1.13;1.02;;;;;;;23.65;49.55;95566.81;4922125;29;20212;-86
2022/06/26 08:53:41;;;;;;;2.63;1.38;;;;;;;23.80;49.12;95572.50;4938487;29;20185;-84
2022/06/26 08:56:07;;;;;;;1.67;1.20;;;;;;;24.44;47.85;95586.69;4938384;29;20638;-84
2022/06/26 08:58:32;;;;;;;1.33;1.23;;;;;;;24.61;46.43;95576.16;4922039;29;20188;-83
2022/06/26 09:00:58;;;;;;;1.38;1.00;;;;;;;24.40;47.50;95574.94;4922724;29;20205;-84
2022/06/26 09:03:57;;;;;;;1.20;1.10;;;;;;;24.29;49.24;95584.50;4938979;29;20181;-85
2022/06/26 09:06:23;;;;;;;1.30;1.20;;;;;;;24.52;47.80;95586.34;4922930;29;20197;-85
2022/06/26 09:08:51;;;;;;;1.45;1.13;;;;;;;24.49;49.46;95589.47;4922786;29;20191;-84
2022/06/26 09:11:18;;;;;;;1.30;1.20;;;;;;;24.68;48.29;95592.78;4924282;29;20689;-84
2022/06/26 09:13:45;;;;;;;1.70;1.08;;;;;;;24.86;47.89;95589.16;4937930;29;20200;-84
2022/06/26 09:16:11;;;;;;;1.73;1.17;;;;;;;24.76;47.18;95588.94;4922782;29;20549;-85
2022/06/26 09:18:37;;;;;;;2.67;1.15;;;;;;;24.65;48.10;95582.63;4938315;29;20185;-85
2022/06/26 09:21:04;;;;;;;2.33;1.15;;;;;;;23.49;50.58;95588.66;4921275;29;20708;-85
2022/06/26 09:23:32;;;;;;;1.20;1.10;;;;;;;23.85;50.81;95588.50;4938544;29;20240;-86
2022/06/26 09:25:57;;;;;;;1.45;1.10;;;;;;;24.29;48.22;95584.50;4921416;29;20264;-85
2022/06/26 09:28:23;;;;;;;2.08;1.10;;;;;;;24.83;47.54;95582.47;4921264;29;20272;-86
2022/06/26 09:31:04;;;;;;;1.90;1.38;;;;;;;25.37;46.70;95590.94;4921451;29;20193;-86
2022/06/26 09:33:34;;;;;;;1.73;1.50;;;;;;;25.26;46.51;95588.31;4937901;29;20586;-84
2022/06/26 09:36:00;;;;;;;1.85;1.15;;;;;;;25.68;45.69;95584.25;4920895;29;20185;-84
2022/06/26 09:38:36;;;;;;;1.27;1.17;;;;;;;25.37;45.17;95595.44;4921690;29;20212;-85
2022/06/26 09:41:04;;;;;;;2.45;1.35;;;;;;;24.56;46.45;95592.81;4919209;29;20554;-85
2022/06/26 09:43:38;;;;;;;1.92;1.08;;;;;;;24.63;47.29;95586.53;4920839;29;20268;-84
2022/06/26 09:46:09;;;;;;;1.45;1.00;;;;;;;24.36;47.65;95587.03;4936364;29;20173;-84
2022/06/26 09:48:35;;;;;;;1.58;1.20;;;;;;;25.53;45.17;95593.84;4920825;29;20306;-85
2022/06/26 09:51:01;;;;;;;2.10;1.10;;;;;;;24.16;49.00;95589.22;4920628;29;20249;-85
2022/06/26 09:53:27;;;;;;;1.27;1.13;;;;;;;25.58;45.68;95602.72;4920704;29;20712;-85
2022/06/26 09:55:54;;;;;;;1.50;1.40;;;;;;;25.90;44.00;95596.91;4920748;29;20553;-84
2022/06/26 09:58:20;;;;;;;1.20;1.20;;;;;;;25.97;43.99;95598.34;4920815;29;20530;-85
2022/06/26 10:06:25;;;;;;;1.60;1.23;;;;;;;25.84;44.43;95587.22;4920499;29;20304;-85
2022/06/26 10:06:25;;;;;;;2.60;1.25;;;;;;;25.27;45.36;95581.97;4939908;28;20204;-85
2022/06/26 10:08:52;;;;;;;1.40;1.20;;;;;;;25.43;44.85;95595.28;4938274;29;20312;-85
2022/06/26 10:11:18;;;;;;;1.38;1.27;;;;;;;25.04;46.23;95582.88;4921197;29;20224;-85
2022/06/26 10:13:43;;;;;;;1.50;1.13;;;;;;;25.38;46.40;95586.44;4920869;29;20180;-85
2022/06/26 10:16:36;;;;;;;2.45;1.20;;;;;;;25.75;45.13;95588.66;4921381;29;20177;-85
2022/06/26 10:19:18;;;;;;;1.50;1.40;;;;;;;25.21;45.40;95593.56;4921115;29;20185;-85
2022/06/26 10:21:45;;;;;;;2.83;1.35;;;;;;;25.04;46.69;95589.00;4937560;29;20184;-85
2022/06/26 10:24:11;;;;;;;1.73;1.00;;;;;;;25.24;45.90;95593.06;4921428;29;20239;-85
2022/06/26 10:26:36;;;;;;;2.03;1.20;;;;;;;24.87;46.98;95593.41;4938219;29;20259;-85
2022/06/26 10:29:06;;;;;;;3.05;1.30;;;;;;;25.59;46.22;95599.00;4922284;29;20271;-86
2022/06/26 10:31:49;;;;;;;2.00;1.17;;;;;;;25.06;47.00;95599.38;4922206;29;20216;-85
2022/06/26 10:34:19;;;;;;;2.08;1.05;;;;;;;25.35;45.82;95600.97;4937000;29;20270;-85
2022/06/26 10:37:03;;;;;;;1.20;1.10;;;;;;;25.19;46.29;95585.81;4921680;29;20184;-84
2022/06/26 10:39:42;;;;;;;1.40;1.30;;;;;;;25.11;46.75;95597.63;4922075;29;20196;-85
2022/06/26 10:45:03;;;;;;;1.42;1.30;;;;;;;24.63;48.67;95592.66;4939315;29;20228;-85
2022/06/26 10:47:49;;;;;;;3.00;1.20;;;;;;;24.41;48.80;95589.00;4921606;29;20181;-85
2022/06/26 10:50:25;;;;;;;1.33;1.23;;;;;;;24.47;49.07;95586.25;4922368;29;20256;-85
2022/06/26 10:52:50;;;;;;;1.95;1.25;;;;;;;24.79;48.60;95591.13;4939323;29;20251;-86
2022/06/26 10:55:15;;;;;;;2.88;1.33;;;;;;;25.12;46.66;95588.63;4941385;29;20189;-84
2022/06/26 10:57:41;;;;;;;2.72;1.20;;;;;;;24.59;49.24;95588.88;4925983;29;20203;-86
2022/06/26 11:00:11;;;;;;;1.30;1.20;;;;;;;25.04;48.90;95591.66;4955289;29;20201;-84
2022/06/26 11:02:38;;;;;;;1.77;1.65;;;;;;;24.93;48.74;95594.31;4926387;29;20177;-85
2022/06/26 11:05:05;;;;;;;2.00;1.23;;;;;;;25.19;47.56;95588.47;4924695;29;20325;-85
2022/06/26 11:07:42;;;;;;;2.30;1.38;;;;;;;25.60;45.60;95594.50;4924696;29;20283;-85
2022/06/26 11:10:11;;;;;;;2.35;1.58;;;;;;;25.46;46.35;95586.03;4924517;29;20683;-86
2022/06/26 11:12:41;;;;;;;1.60;1.13;;;;;;;24.99;48.32;95580.88;4924580;29;20573;-85
2022/06/26 11:15:07;;;;;;;1.67;1.58;;;;;;;24.87;48.78;95580.13;4923858;29;20177;-85
2022/06/26 11:17:33;;;;;;;1.30;1.20;;;;;;;25.22;47.53;95579.22;4924345;29;20193;-85
2022/06/26 11:22:42;;;;;;;2.25;1.17;;;;;;;25.66;46.18;95578.38;4945798;29;20236;-85
2022/06/26 11:25:08;;;;;;;2.42;1.35;;;;;;;25.97;46.33;95576.22;4925364;29;20185;-85
2022/06/26 11:27:33;;;;;;;2.28;1.30;;;;;;;25.66;45.92;95566.94;4942190;29;20672;-86
2022/06/26 11:29:59;;;;;;;1.50;1.40;;;;;;;26.22;45.76;95570.47;4927594;29;20197;-84
2022/06/26 11:32:26;;;;;;;1.70;1.40;;;;;;;25.39;47.35;95580.06;4927617;29;20205;-85
2022/06/26 11:34:55;;;;;;;2.97;1.67;;;;;;;25.61;46.82;95575.63;4943770;29;20180;-85
2022/06/26 11:37:37;;;;;;;1.58;1.48;;;;;;;24.74;48.86;95577.75;4927068;29;20315;-86
2022/06/26 11:40:12;;;;;;;1.45;1.35;;;;;;;25.30;47.15;95579.63;4941457;29;20215;-85
2022/06/26 11:42:38;;;;;;;1.70;1.60;;;;;;;24.72;49.45;95574.50;4927032;29;20177;-85
2022/06/26 11:45:06;;;;;;;1.80;1.70;;;;;;;24.34;50.19;95572.41;4926399;29;20200;-85
2022/06/26 11:47:33;;;;;;;1.80;1.70;;;;;;;24.39;50.28;95569.88;4942278;29;20185;-85